createdAt,value
2022-09-28T00:01:55.906Z,21.57
2022-09-28T00:04:24.684Z,21.64
2022-09-28T00:06:53.369Z,21.58
2022-09-28T00:09:21.967Z,21.57
2022-09-28T00:11:50.595Z,21.62
2022-09-28T00:14:19.913Z,21.49
2022-09-28T00:16:49.962Z,21.44
2022-09-28T00:19:20.586Z,21.40
2022-09-28T00:21:49.275Z,21.29
2022-09-28T00:24:22.995Z,21.27
2022-09-28T00:27:04.187Z,21.33
2022-09-28T00:29:35.388Z,21.27
2022-09-28T00:32:11.737Z,21.22
2022-09-28T00:34:44.507Z,21.13
2022-09-28T00:37:14.299Z,21.01
2022-09-28T00:39:43.679Z,21.01
2022-09-28T00:42:21.543Z,20.88
2022-09-28T00:44:57.497Z,20.85
2022-09-28T00:47:41.285Z,20.73
2022-09-28T00:50:16.166Z,20.67
2022-09-28T00:52:51.211Z,20.61
2022-09-28T00:55:29.094Z,20.55
2022-09-28T00:58:02.333Z,20.40
2022-09-28T01:00:31.266Z,20.20
2022-09-28T01:03:01.119Z,20.01
2022-09-28T01:05:29.531Z,19.88
2022-09-28T01:07:59.238Z,19.83
2022-09-28T01:10:31.555Z,19.74
2022-09-28T01:13:00.622Z,19.64
2022-09-28T01:15:32.803Z,19.51
2022-09-28T01:18:22.669Z,19.36
2022-09-28T01:21:18.619Z,19.12
2022-09-28T01:24:05.208Z,18.98
2022-09-28T01:26:45.469Z,18.90
2022-09-28T01:29:43.999Z,18.76
2022-09-28T01:32:27.899Z,18.69
2022-09-28T01:35:02.836Z,18.60
2022-09-28T01:37:42.295Z,18.49
2022-09-28T01:40:13.696Z,18.35
2022-09-28T01:42:45.301Z,18.25
2022-09-28T01:45:30.206Z,18.13
2022-09-28T01:48:04.622Z,18.04
2022-09-28T01:50:38.167Z,17.80
2022-09-28T01:53:19.990Z,17.55
2022-09-28T01:55:57.156Z,17.41
2022-09-28T01:58:37.322Z,17.26
2022-09-28T02:01:15.652Z,17.18
2022-09-28T02:03:57.716Z,17.12
2022-09-28T02:06:53.544Z,17.09
2022-09-28T02:09:38.594Z,17.00
2022-09-28T02:12:17.434Z,17.01
2022-09-28T02:14:49.423Z,17.08
2022-09-28T02:17:18.243Z,17.11
2022-09-28T02:19:47.034Z,17.03
2022-09-28T02:22:36.630Z,16.96
2022-09-28T02:25:20.956Z,16.86
2022-09-28T02:28:12.001Z,16.71
2022-09-28T02:30:45.503Z,16.65
2022-09-28T02:33:26.053Z,16.68
2022-09-28T02:35:54.748Z,16.61
2022-09-28T02:38:23.354Z,16.59
2022-09-28T02:41:06.068Z,16.61
2022-09-28T02:43:54.266Z,16.64
2022-09-28T02:46:37.479Z,16.66
2022-09-28T02:49:22.746Z,16.58
2022-09-28T02:52:04.123Z,16.47
2022-09-28T02:55:09.354Z,16.37
2022-09-28T02:57:58.869Z,16.30
2022-09-28T03:00:27.174Z,16.22
2022-09-28T03:03:30.635Z,16.23
2022-09-28T03:06:11.710Z,16.23
2022-09-28T03:08:56.077Z,16.31
2022-09-28T03:11:44.031Z,16.18
2022-09-28T03:14:13.506Z,16.10
2022-09-28T03:16:45.529Z,15.89
2022-09-28T03:19:15.723Z,15.81
2022-09-28T03:21:44.321Z,15.69
2022-09-28T03:24:12.657Z,15.57
2022-09-28T03:26:41.260Z,15.48
2022-09-28T03:29:09.871Z,15.48
2022-09-28T03:31:38.676Z,15.40
2022-09-28T03:34:07.052Z,15.23
2022-09-28T03:36:35.746Z,15.23
2022-09-28T03:39:04.429Z,15.36
2022-09-28T03:41:32.968Z,15.57
2022-09-28T03:44:01.873Z,15.83
2022-09-28T03:46:30.353Z,15.83
2022-09-28T03:49:02.377Z,15.82
2022-09-28T03:51:31.098Z,15.58
2022-09-28T03:53:59.799Z,15.46
2022-09-28T03:56:29.023Z,15.21
2022-09-28T03:58:57.564Z,15.23
2022-09-28T04:01:26.205Z,15.31
2022-09-28T04:03:58.284Z,15.42
2022-09-28T04:06:27.338Z,15.51
2022-09-28T04:08:56.108Z,15.46
2022-09-28T04:11:25.612Z,15.48
2022-09-28T04:13:54.199Z,15.39
2022-09-28T04:16:23.284Z,15.43
2022-09-28T04:18:52.439Z,15.41
2022-09-28T04:21:21.954Z,15.34
2022-09-28T04:23:50.902Z,15.26
2022-09-28T04:26:25.023Z,15.15
2022-09-28T04:29:12.365Z,15.05
2022-09-28T04:31:55.102Z,14.90
2022-09-28T04:34:24.512Z,14.64
2022-09-28T04:36:53.053Z,14.55
2022-09-28T04:39:21.657Z,14.46
2022-09-28T04:41:51.227Z,14.54
2022-09-28T04:44:19.587Z,14.47
2022-09-28T04:46:48.135Z,14.45
2022-09-28T04:49:16.788Z,14.25
2022-09-28T04:51:45.495Z,14.14
2022-09-28T04:54:14.049Z,14.01
2022-09-28T04:56:43.043Z,13.78
2022-09-28T04:59:11.489Z,13.68
2022-09-28T05:01:40.043Z,13.48
2022-09-28T05:04:08.705Z,13.41
2022-09-28T05:06:37.342Z,13.29
2022-09-28T05:09:05.915Z,13.21
2022-09-28T05:11:34.487Z,13.17
2022-09-28T05:14:02.977Z,13.21
2022-09-28T05:16:34.953Z,13.22
2022-09-28T05:19:03.350Z,13.16
2022-09-28T05:21:32.123Z,13.15
2022-09-28T05:24:00.857Z,12.95
2022-09-28T05:26:29.438Z,12.90
2022-09-28T05:28:57.776Z,12.87
2022-09-28T05:31:28.429Z,12.61
2022-09-28T05:33:57.165Z,12.42
2022-09-28T05:36:28.100Z,12.34
2022-09-28T05:38:56.703Z,12.39
2022-09-28T05:41:25.014Z,12.66
2022-09-28T05:43:54.686Z,12.72
2022-09-28T05:46:24.932Z,12.70
2022-09-28T05:48:56.223Z,12.50
2022-09-28T05:51:26.635Z,12.31
2022-09-28T05:54:04.629Z,12.23
2022-09-28T05:56:34.611Z,12.01
2022-09-28T05:59:07.043Z,11.89
2022-09-28T06:01:35.667Z,11.78
2022-09-28T06:04:04.358Z,11.80
2022-09-28T06:06:37.903Z,11.54
2022-09-28T06:09:06.454Z,11.55
2022-09-28T06:11:35.027Z,11.43
2022-09-28T06:14:03.612Z,11.30
2022-09-28T06:16:32.235Z,11.27
2022-09-28T06:19:00.730Z,11.16
2022-09-28T06:21:29.694Z,11.14
2022-09-28T06:23:58.247Z,11.12
2022-09-28T06:26:27.012Z,11.08
2022-09-28T06:28:55.960Z,11.09
2022-09-28T06:31:28.517Z,11.08
2022-09-28T06:33:56.866Z,11.23
2022-09-28T06:36:26.069Z,11.22
2022-09-28T06:38:54.641Z,11.18
2022-09-28T06:41:23.208Z,11.01
2022-09-28T06:43:53.522Z,11.06
2022-09-28T06:46:22.775Z,10.99
2022-09-28T06:48:51.644Z,10.95
2022-09-28T06:51:20.466Z,10.98
2022-09-28T06:53:49.163Z,10.98
2022-09-28T06:56:17.947Z,10.94
2022-09-28T06:58:46.547Z,10.90
2022-09-28T07:01:15.312Z,10.91
2022-09-28T07:03:44.458Z,10.90
2022-09-28T07:06:14.019Z,10.83
2022-09-28T07:08:42.758Z,10.85
2022-09-28T07:11:11.380Z,10.85
2022-09-28T07:13:50.399Z,10.93
2022-09-28T07:16:25.688Z,11.02
2022-09-28T07:18:55.589Z,11.11
2022-09-28T07:21:29.729Z,11.17
2022-09-28T07:23:58.668Z,11.26
2022-09-28T07:26:27.079Z,11.30
2022-09-28T07:28:57.029Z,11.32
2022-09-28T07:31:26.445Z,11.35
2022-09-28T07:33:55.131Z,11.41
2022-09-28T07:36:24.079Z,11.32
2022-09-28T07:38:52.483Z,11.28
2022-09-28T07:41:33.462Z,11.30
2022-09-28T07:44:08.807Z,11.33
2022-09-28T07:46:38.349Z,11.32
2022-09-28T07:49:09.811Z,11.32
2022-09-28T07:51:40.812Z,11.26
2022-09-28T07:54:09.454Z,11.30
2022-09-28T07:56:38.011Z,11.32
2022-09-28T07:59:06.337Z,11.17
2022-09-28T08:01:34.830Z,11.09
2022-09-28T08:04:03.227Z,11.02
2022-09-28T08:06:32.404Z,10.98
2022-09-28T08:09:02.979Z,10.98
2022-09-28T08:11:31.796Z,11.00
2022-09-28T08:14:01.563Z,10.98
2022-09-28T08:16:31.593Z,10.98
2022-09-28T08:19:00.242Z,10.94
2022-09-28T08:21:47.060Z,10.85
2022-09-28T08:24:20.382Z,10.71
2022-09-28T08:26:48.970Z,10.70
2022-09-28T08:29:18.209Z,10.71
2022-09-28T08:31:49.873Z,10.73
2022-09-28T08:34:17.912Z,10.72
2022-09-28T08:36:46.570Z,10.73
2022-09-28T08:39:15.168Z,10.87
2022-09-28T08:42:07.915Z,10.86
2022-09-28T08:45:08.961Z,10.80
2022-09-28T08:47:55.693Z,10.73
2022-09-28T08:50:30.331Z,10.69
2022-09-28T08:53:13.559Z,10.71
2022-09-28T08:55:45.927Z,10.81
2022-09-28T08:58:19.942Z,10.91
2022-09-28T09:00:51.260Z,11.04
2022-09-28T09:03:25.022Z,11.28
2022-09-28T09:06:02.711Z,11.41
2022-09-28T09:08:56.920Z,11.49
2022-09-28T09:11:39.315Z,11.48
2022-09-28T09:14:16.238Z,11.48
2022-09-28T09:17:08.155Z,11.50
2022-09-28T09:19:39.673Z,11.38
2022-09-28T09:22:30.965Z,11.36
2022-09-28T09:25:29.756Z,11.44
2022-09-28T09:28:31.591Z,11.49
2022-09-28T09:31:12.682Z,11.57
2022-09-28T09:33:49.689Z,11.62
2022-09-28T09:36:42.171Z,11.68
2022-09-28T09:39:39.693Z,11.69
2022-09-28T09:42:19.980Z,11.63
2022-09-28T09:44:54.728Z,11.64
2022-09-28T09:47:31.832Z,11.61
2022-09-28T09:50:08.979Z,11.55
2022-09-28T09:52:39.894Z,11.56
2022-09-28T09:55:20.608Z,11.52
2022-09-28T09:58:06.444Z,11.51
2022-09-28T10:00:35.066Z,11.49
2022-09-28T10:03:04.290Z,11.44
2022-09-28T10:05:35.548Z,11.40
2022-09-28T10:08:19.453Z,11.43
2022-09-28T10:10:53.061Z,11.35
2022-09-28T10:13:21.434Z,11.23
2022-09-28T10:15:51.153Z,11.16
2022-09-28T10:18:22.860Z,10.95
2022-09-28T10:20:51.454Z,10.79
2022-09-28T10:23:27.391Z,10.62
2022-09-28T10:26:02.014Z,10.57
2022-09-28T10:29:00.248Z,10.50
2022-09-28T10:31:39.397Z,10.47
2022-09-28T10:34:10.219Z,10.34
2022-09-28T10:37:01.949Z,10.11
2022-09-28T10:39:45.701Z,10.00
2022-09-28T10:42:28.935Z,9.82
2022-09-28T10:45:21.272Z,9.77
2022-09-28T10:47:50.922Z,9.52
2022-09-28T10:50:28.203Z,9.29
2022-09-28T10:53:21.725Z,9.30
2022-09-28T10:56:05.239Z,9.01
2022-09-28T10:58:41.754Z,9.07
2022-09-28T11:01:19.885Z,8.99
2022-09-28T11:03:51.724Z,8.96
2022-09-28T11:06:42.113Z,8.92
2022-09-28T11:09:34.539Z,8.94
2022-09-28T11:12:08.119Z,8.97
2022-09-28T11:14:45.019Z,8.81
2022-09-28T11:17:26.773Z,8.69
2022-09-28T11:20:00.802Z,8.71
2022-09-28T11:22:35.277Z,8.79
2022-09-28T11:25:22.539Z,8.63
2022-09-28T11:27:54.180Z,8.63
2022-09-28T11:31:01.146Z,8.63
2022-09-28T11:33:41.817Z,8.64
2022-09-28T11:36:26.039Z,8.55
2022-09-28T11:39:13.597Z,8.50
2022-09-28T11:41:42.232Z,8.53
2022-09-28T11:44:34.912Z,8.36
2022-09-28T11:47:40.577Z,8.29
2022-09-28T11:50:32.663Z,8.26
2022-09-28T11:53:05.695Z,8.24
2022-09-28T11:56:09.494Z,8.15
2022-09-28T11:58:54.968Z,8.20
2022-09-28T12:01:44.659Z,8.10
2022-09-28T12:04:56.191Z,7.97
2022-09-28T12:07:32.561Z,7.83
2022-09-28T12:10:45.515Z,7.87
2022-09-28T12:13:20.087Z,7.91
2022-09-28T12:16:32.323Z,7.94
2022-09-28T12:19:04.012Z,7.84
2022-09-28T12:21:40.925Z,7.67
2022-09-28T12:24:32.479Z,7.54
2022-09-28T12:27:30.599Z,7.49
2022-09-28T12:30:21.946Z,7.68
2022-09-28T12:33:03.322Z,7.70
2022-09-28T12:35:34.916Z,7.63
2022-09-28T12:38:21.569Z,7.68
2022-09-28T12:40:55.112Z,7.70
2022-09-28T12:43:44.817Z,7.72
2022-09-28T12:46:50.957Z,7.64
2022-09-28T12:52:29.599Z,7.65
2022-09-28T12:55:14.600Z,7.54
2022-09-28T12:58:09.464Z,7.23
2022-09-28T13:01:20.434Z,7.07
2022-09-28T13:04:11.424Z,7.22
2022-09-28T13:06:53.462Z,6.94
2022-09-28T13:09:27.103Z,6.91
2022-09-28T13:12:14.562Z,6.82
2022-09-28T13:15:33.381Z,6.88
2022-09-28T13:18:17.393Z,6.67
2022-09-28T13:21:06.993Z,6.64
2022-09-28T13:23:40.891Z,6.63
2022-09-28T13:26:31.608Z,6.56
2022-09-28T13:29:05.642Z,6.55
2022-09-28T13:31:38.344Z,6.50
2022-09-28T13:34:21.777Z,6.49
2022-09-28T13:37:26.956Z,6.55
2022-09-28T13:39:58.114Z,6.61
2022-09-28T13:42:46.856Z,6.63
2022-09-28T13:45:24.745Z,6.56
2022-09-28T13:47:53.726Z,6.59
2022-09-28T13:50:26.881Z,6.53
2022-09-28T13:53:28.610Z,6.50
2022-09-28T13:56:25.750Z,6.65
2022-09-28T13:59:02.850Z,6.62
2022-09-28T14:02:06.930Z,6.67
2022-09-28T14:05:02.527Z,6.83
2022-09-28T14:07:37.275Z,7.05
2022-09-28T14:10:20.599Z,7.27
2022-09-28T14:12:56.187Z,7.36
2022-09-28T14:15:30.792Z,7.57
2022-09-28T14:18:18.420Z,7.63
2022-09-28T14:21:27.976Z,7.60
2022-09-28T14:24:15.075Z,7.57
2022-09-28T14:26:59.542Z,7.56
2022-09-28T14:29:33.171Z,7.73
2022-09-28T14:32:26.475Z,7.71
2022-09-28T14:35:02.520Z,7.71
2022-09-28T14:37:54.408Z,7.66
2022-09-28T14:40:48.706Z,7.76
2022-09-28T14:43:39.456Z,7.91
2022-09-28T14:46:16.940Z,7.97
2022-09-28T14:48:52.310Z,8.04
2022-09-28T14:51:32.410Z,8.17
2022-09-28T14:54:14.413Z,8.32
2022-09-28T14:56:57.730Z,8.38
2022-09-28T14:59:37.733Z,8.44
2022-09-28T15:02:27.938Z,8.54
2022-09-28T15:05:15.264Z,8.69
2022-09-28T15:07:53.423Z,8.80
2022-09-28T15:10:38.405Z,8.88
2022-09-28T15:13:22.952Z,8.96
2022-09-28T15:16:01.098Z,9.10
2022-09-28T15:18:54.507Z,9.23
2022-09-28T15:21:23.923Z,9.38
2022-09-28T15:23:52.511Z,9.49
2022-09-28T15:26:33.399Z,9.60
2022-09-28T15:29:05.620Z,9.71
2022-09-28T15:31:37.272Z,9.85
2022-09-28T15:34:23.841Z,9.89
2022-09-28T15:36:52.604Z,10.03
2022-09-28T15:39:27.323Z,10.20
2022-09-28T15:41:55.500Z,10.34
2022-09-28T15:44:33.634Z,10.45
2022-09-28T15:47:26.119Z,10.49
2022-09-28T15:50:04.793Z,10.66
2022-09-28T15:52:48.283Z,10.82
2022-09-28T15:55:19.735Z,10.95
2022-09-28T15:57:49.071Z,10.99
2022-09-28T16:00:26.584Z,11.17
2022-09-28T16:03:10.105Z,11.26
2022-09-28T16:05:46.628Z,11.39
2022-09-28T16:08:38.619Z,11.57
2022-09-28T16:11:14.203Z,11.74
2022-09-28T16:13:56.220Z,11.89
2022-09-28T16:16:31.197Z,12.03
2022-09-28T16:19:02.268Z,12.10
2022-09-28T16:21:47.310Z,12.24
2022-09-28T16:24:49.820Z,12.42
2022-09-28T16:27:30.139Z,12.57
2022-09-28T16:30:23.012Z,12.85
2022-09-28T16:32:53.593Z,13.01
2022-09-28T16:35:26.718Z,13.07
2022-09-28T16:37:59.450Z,13.37
2022-09-28T16:40:29.058Z,13.51
2022-09-28T16:43:04.183Z,13.61
2022-09-28T16:45:33.848Z,13.93
2022-09-28T16:48:04.326Z,13.90
2022-09-28T16:50:32.890Z,14.16
2022-09-28T16:53:30.931Z,14.22
2022-09-28T16:56:01.048Z,14.68
2022-09-28T16:58:33.042Z,14.84
2022-09-28T17:01:02.113Z,15.76
2022-09-28T17:03:31.167Z,15.50
2022-09-28T17:06:00.030Z,15.44
2022-09-28T17:08:28.929Z,15.65
2022-09-28T17:11:19.205Z,15.82
2022-09-28T17:13:49.408Z,16.73
2022-09-28T17:16:32.605Z,16.40
2022-09-28T17:19:07.386Z,16.95
2022-09-28T17:21:35.706Z,18.17
2022-09-28T17:24:04.224Z,19.04
2022-09-28T17:26:38.120Z,18.33
2022-09-28T17:29:09.979Z,17.74
2022-09-28T17:31:38.710Z,18.76
2022-09-28T17:34:07.254Z,19.68
2022-09-28T17:36:35.802Z,19.00
2022-09-28T17:39:04.200Z,18.81
2022-09-28T17:41:33.439Z,18.55
2022-09-28T17:44:04.092Z,18.95
2022-09-28T17:46:36.213Z,18.60
2022-09-28T17:49:07.651Z,19.13
2022-09-28T17:51:40.783Z,19.07
2022-09-28T17:54:10.162Z,18.86
2022-09-28T17:56:38.936Z,19.05
2022-09-28T17:59:09.720Z,19.09
2022-09-28T18:01:41.092Z,18.82
2022-09-28T18:04:27.629Z,19.00
2022-09-28T18:07:01.851Z,19.24
2022-09-28T18:09:30.857Z,19.24
2022-09-28T18:12:05.093Z,19.09
2022-09-28T18:14:33.719Z,19.18
2022-09-28T18:17:01.785Z,19.40
2022-09-28T18:19:32.356Z,19.48
2022-09-28T18:22:02.600Z,19.70
2022-09-28T18:24:30.642Z,20.04
2022-09-28T18:26:59.099Z,19.95
2022-09-28T18:29:32.221Z,20.11
2022-09-28T18:32:01.796Z,20.04
2022-09-28T18:34:30.334Z,20.26
2022-09-28T18:36:58.759Z,20.26
2022-09-28T18:39:27.854Z,20.28
2022-09-28T18:41:56.488Z,20.55
2022-09-28T18:44:26.300Z,20.41
2022-09-28T18:46:55.408Z,20.63
2022-09-28T18:49:24.736Z,20.65
2022-09-28T18:51:53.178Z,20.61
2022-09-28T18:54:21.912Z,20.43
2022-09-28T18:56:52.480Z,20.81
2022-09-28T18:59:20.563Z,21.11
2022-09-28T19:01:49.324Z,21.06
2022-09-28T19:04:18.140Z,21.04
2022-09-28T19:06:51.604Z,21.15
2022-09-28T19:09:21.829Z,21.22
2022-09-28T19:11:50.919Z,21.25
2022-09-28T19:14:19.487Z,21.59
2022-09-28T19:16:48.279Z,21.63
2022-09-28T19:19:19.088Z,21.43
2022-09-28T19:21:48.962Z,21.38
2022-09-28T19:24:19.021Z,21.60
2022-09-28T19:26:47.840Z,21.79
2022-09-28T19:29:17.331Z,21.73
2022-09-28T19:31:46.013Z,21.82
2022-09-28T19:34:14.559Z,21.80
2022-09-28T19:36:43.191Z,22.03
2022-09-28T19:39:15.882Z,22.08
2022-09-28T19:41:46.692Z,22.08
2022-09-28T19:44:28.454Z,22.30
2022-09-28T19:47:08.617Z,22.20
2022-09-28T19:49:39.800Z,22.24
2022-09-28T19:52:17.472Z,22.45
2022-09-28T19:54:47.331Z,22.44
2022-09-28T19:57:17.119Z,22.38
2022-09-28T19:59:48.482Z,22.31
2022-09-28T20:02:21.020Z,22.20
2022-09-28T20:04:49.733Z,22.52
2022-09-28T20:07:18.364Z,22.50
2022-09-28T20:09:46.968Z,22.76
2022-09-28T20:12:15.898Z,22.44
2022-09-28T20:14:44.448Z,22.92
2022-09-28T20:17:13.184Z,23.08
2022-09-28T20:19:41.858Z,23.23
2022-09-28T20:22:10.402Z,22.84
2022-09-28T20:24:38.978Z,22.80
2022-09-28T20:27:07.882Z,23.22
2022-09-28T20:29:36.624Z,23.68
2022-09-28T20:32:05.275Z,23.38
2022-09-28T20:34:35.285Z,23.14
2022-09-28T20:37:03.873Z,23.54
2022-09-28T20:39:32.443Z,23.54
2022-09-28T20:42:01.020Z,23.40
2022-09-28T20:44:30.740Z,23.59
2022-09-28T20:46:59.316Z,23.75
2022-09-28T20:49:29.394Z,23.75
2022-09-28T20:51:58.038Z,24.13
2022-09-28T20:54:26.647Z,24.46
2022-09-28T20:56:55.222Z,24.28
2022-09-28T20:59:27.029Z,24.32
2022-09-28T21:01:55.687Z,23.72
2022-09-28T21:04:24.307Z,23.91
2022-09-28T21:06:53.172Z,24.29
2022-09-28T21:09:21.789Z,24.03
2022-09-28T21:11:50.383Z,23.40
2022-09-28T21:14:20.017Z,23.49
2022-09-28T21:16:48.671Z,23.89
2022-09-28T21:19:17.174Z,23.29
2022-09-28T21:21:46.016Z,23.70
2022-09-28T21:24:17.834Z,23.08
2022-09-28T21:26:46.432Z,23.19
2022-09-28T21:29:17.069Z,23.58
2022-09-28T21:31:48.237Z,23.28
2022-09-28T21:34:22.506Z,23.24
2022-09-28T21:36:54.443Z,23.29
2022-09-28T21:39:23.423Z,23.78
2022-09-28T21:41:51.951Z,23.91
2022-09-28T21:44:20.418Z,23.43
2022-09-28T21:46:49.274Z,23.89
2022-09-28T21:49:17.967Z,24.07
2022-09-28T21:51:48.667Z,24.37
2022-09-28T21:54:17.263Z,24.58
2022-09-28T21:56:46.017Z,24.13
2022-09-28T21:59:17.675Z,24.25
2022-09-28T22:01:46.268Z,24.07
2022-09-28T22:04:14.950Z,23.88
2022-09-28T22:06:43.643Z,23.88
2022-09-28T22:09:12.215Z,23.95
2022-09-28T22:11:40.850Z,24.33
2022-09-28T22:14:12.171Z,24.90
2022-09-28T22:16:40.760Z,25.18
2022-09-28T22:19:09.279Z,24.64
2022-09-28T22:21:37.677Z,24.30
2022-09-28T22:24:08.578Z,24.24
2022-09-28T22:26:38.903Z,24.31
2022-09-28T22:29:10.094Z,24.13
2022-09-28T22:31:41.638Z,24.50
2022-09-28T22:34:11.170Z,24.95
2022-09-28T22:36:39.964Z,25.19
2022-09-28T22:39:08.636Z,25.23
2022-09-28T22:41:37.224Z,25.33
2022-09-28T22:44:06.044Z,25.31
2022-09-28T22:46:34.981Z,24.93
2022-09-28T22:49:04.106Z,25.14
2022-09-28T22:51:33.320Z,25.06
2022-09-28T22:54:02.222Z,25.24
2022-09-28T22:56:31.345Z,24.72
2022-09-28T22:59:00.303Z,24.21
2022-09-28T23:01:30.937Z,24.08
2022-09-28T23:04:00.692Z,24.41
2022-09-28T23:06:32.113Z,24.48
2022-09-28T23:09:01.731Z,24.41
2022-09-28T23:11:31.047Z,24.49
2022-09-28T23:14:00.917Z,24.80
2022-09-28T23:16:31.169Z,24.67
2022-09-28T23:18:59.777Z,24.61
2022-09-28T23:21:29.405Z,24.38
2022-09-28T23:24:02.435Z,23.88
2022-09-28T23:26:34.032Z,24.01
2022-09-28T23:29:02.693Z,23.78
2022-09-28T23:31:33.441Z,23.55
2022-09-28T23:34:04.835Z,23.66
2022-09-28T23:36:34.138Z,23.58
2022-09-28T23:39:03.014Z,23.23
2022-09-28T23:41:32.077Z,23.62
2022-09-28T23:44:00.861Z,23.71
2022-09-28T23:46:29.461Z,23.82
2022-09-28T23:48:58.092Z,24.12
2022-09-28T23:51:26.764Z,24.23
2022-09-28T23:53:58.002Z,23.84
2022-09-28T23:56:26.528Z,23.69
2022-09-28T23:58:55.106Z,23.96
